< Typhoon 200413 2004 Season Typhoon 200415 >
Typhoon 200414 (MALAKAS)
General InformationTrack Information on Google MapsDetailed Wind InformationAccess Analytics MapList of All Images || NewsDisaster Info.WeblogTrackbackTyphoon FrontResourceGoogle EarthGE AnimationAtom FeedGeoJSON
Detalied Best Track (Time Zone = UTC)
Year Month Day Hour Lat. Long. Pressure (hPa) Wind (kt) Class Image Chart
2004 8 9 00 23.5 150.4 1004 0 2 Image Chart
2004 8 9 06 23.2 151.6 1004 0 2 Image Chart
2004 8 9 12 23.0 152.3 1004 0 2 Image Chart
2004 8 9 18 23.0 153.1 1000 0 2 Image Chart
2004 8 10 00 23.4 153.8 1000 0 2 Image Chart
2004 8 10 06 23.7 154.6 998 0 2 Image Chart
2004 8 10 12 24.2 155.6 998 0 2 Image Chart
2004 8 10 18 25.1 156.9 996 0 2 Image Chart
2004 8 11 00 26.5 158.5 994 35 3 Image Chart
2004 8 11 06 27.9 159.8 992 40 3 Image Chart
2004 8 11 12 29.4 160.9 992 40 3 Image Chart
2004 8 11 18 30.7 162.1 990 45 3 Image Chart
2004 8 12 00 31.7 163.2 990 45 3 Image Chart
2004 8 12 06 32.3 164.7 992 40 3 Image Chart
2004 8 12 12 32.9 166.7 992 40 3 Image Chart
2004 8 12 18 33.2 168.4 992 40 3 Image Chart
2004 8 13 00 33.6 170.7 992 40 3 Image Chart
2004 8 13 06 34.6 173.1 992 40 3 Image Chart
2004 8 13 12 35.4 175.8 994 35 3 Image Chart
2004 8 13 18 36.5 178.7 998 0 2 Image Chart
2004 8 14 00 38.9 181.1 998 0 2 Image Chart
Japan Meteorological Agency Best Track Data | Correction Date : 2006-01-18
< Typhoon 200413 2004 Season Typhoon 200415 >

Help